sensor_id;sensor_type;location;lat;lon;timestamp;pressure;altitude;pressure_sealevel;temperature;humidity
6224;BME280;3145;42.726;23.342;2023-01-31T00:01:04;94924.69;;;0.74;nan
6224;BME280;3145;42.726;23.342;2023-01-31T00:03:33;94923.28;;;0.70;nan
6224;BME280;3145;42.726;23.342;2023-01-31T00:06:09;94922.84;;;0.65;nan
6224;BME280;3145;42.726;23.342;2023-01-31T00:08:36;94933.69;;;0.70;nan
6224;BME280;3145;42.726;23.342;2023-01-31T00:11:03;94912.56;;;0.63;nan
6224;BME280;3145;42.726;23.342;2023-01-31T00:13:29;94915.13;;;0.54;nan
6224;BME280;3145;42.726;23.342;2023-01-31T00:15:57;94905.69;;;0.53;nan
6224;BME280;3145;42.726;23.342;2023-01-31T00:18:24;94924.34;;;0.67;nan
6224;BME280;3145;42.726;23.342;2023-01-31T00:20:52;94921.31;;;0.62;nan
6224;BME280;3145;42.726;23.342;2023-01-31T00:23:19;94920.19;;;0.55;nan
6224;BME280;3145;42.726;23.342;2023-01-31T00:25:45;94923.88;;;0.53;nan
6224;BME280;3145;42.726;23.342;2023-01-31T00:28:12;94902.78;;;0.46;nan
6224;BME280;3145;42.726;23.342;2023-01-31T00:30:39;94910.88;;;0.53;nan
6224;BME280;3145;42.726;23.342;2023-01-31T00:33:06;94915.28;;;0.52;nan
6224;BME280;3145;42.726;23.342;2023-01-31T00:35:32;94898.69;;;0.23;nan
6224;BME280;3145;42.726;23.342;2023-01-31T00:38:00;94898.19;;;0.29;nan
6224;BME280;3145;42.726;23.342;2023-01-31T00:40:27;94916.03;;;0.43;nan
6224;BME280;3145;42.726;23.342;2023-01-31T00:42:54;94920.53;;;0.41;nan
6224;BME280;3145;42.726;23.342;2023-01-31T00:45:20;94912.88;;;0.40;nan
6224;BME280;3145;42.726;23.342;2023-01-31T00:47:47;94915.47;;;0.40;nan
6224;BME280;3145;42.726;23.342;2023-01-31T00:50:15;94913.00;;;0.38;nan
6224;BME280;3145;42.726;23.342;2023-01-31T00:52:41;94912.31;;;0.36;nan
6224;BME280;3145;42.726;23.342;2023-01-31T00:55:09;94904.19;;;0.20;nan
6224;BME280;3145;42.726;23.342;2023-01-31T00:57:36;94902.13;;;0.24;nan
6224;BME280;3145;42.726;23.342;2023-01-31T01:00:04;94878.84;;;0.13;nan
6224;BME280;3145;42.726;23.342;2023-01-31T01:02:30;94897.63;;;0.26;nan
6224;BME280;3145;42.726;23.342;2023-01-31T01:04:57;94914.59;;;0.30;nan
6224;BME280;3145;42.726;23.342;2023-01-31T01:07:24;94928.75;;;0.16;nan
6224;BME280;3145;42.726;23.342;2023-01-31T01:09:50;94928.22;;;0.22;nan
6224;BME280;3145;42.726;23.342;2023-01-31T01:12:20;94924.34;;;0.17;nan
6224;BME280;3145;42.726;23.342;2023-01-31T01:14:46;94925.38;;;0.25;nan
6224;BME280;3145;42.726;23.342;2023-01-31T01:17:13;94924.41;;;0.26;nan
6224;BME280;3145;42.726;23.342;2023-01-31T01:19:40;94917.97;;;0.21;nan
6224;BME280;3145;42.726;23.342;2023-01-31T01:22:07;94862.22;;;-0.06;nan
6224;BME280;3145;42.726;23.342;2023-01-31T01:24:33;94916.19;;;0.21;nan
6224;BME280;3145;42.726;23.342;2023-01-31T01:27:00;94914.59;;;0.30;nan
6224;BME280;3145;42.726;23.342;2023-01-31T01:29:30;94875.16;;;0.15;nan
6224;BME280;3145;42.726;23.342;2023-01-31T01:31:57;94903.81;;;0.34;nan
6224;BME280;3145;42.726;23.342;2023-01-31T01:34:24;94890.91;;;0.23;nan
6224;BME280;3145;42.726;23.342;2023-01-31T01:36:50;94881.34;;;0.24;nan
6224;BME280;3145;42.726;23.342;2023-01-31T01:39:17;94890.84;;;0.34;nan
6224;BME280;3145;42.726;23.342;2023-01-31T01:41:44;94897.41;;;0.38;nan
6224;BME280;3145;42.726;23.342;2023-01-31T01:44:43;94903.22;;;0.51;nan
6224;BME280;3145;42.726;23.342;2023-01-31T01:47:14;94905.38;;;0.46;nan
6224;BME280;3145;42.726;23.342;2023-01-31T01:49:43;94874.66;;;0.21;nan
6224;BME280;3145;42.726;23.342;2023-01-31T01:52:13;94919.59;;;0.42;nan
6224;BME280;3145;42.726;23.342;2023-01-31T01:54:45;94890.34;;;0.40;nan
6224;BME280;3145;42.726;23.342;2023-01-31T01:57:16;94868.94;;;0.27;nan
6224;BME280;3145;42.726;23.342;2023-01-31T01:59:49;94901.78;;;0.38;nan
6224;BME280;3145;42.726;23.342;2023-01-31T02:02:19;94889.50;;;0.40;nan
6224;BME280;3145;42.726;23.342;2023-01-31T02:04:48;94894.75;;;0.49;nan
6224;BME280;3145;42.726;23.342;2023-01-31T02:07:15;94888.94;;;0.36;nan
6224;BME280;3145;42.726;23.342;2023-01-31T02:09:48;94912.81;;;0.51;nan
6224;BME280;3145;42.726;23.342;2023-01-31T02:12:18;94902.28;;;0.52;nan
6224;BME280;3145;42.726;23.342;2023-01-31T02:14:47;94906.78;;;0.50;nan
6224;BME280;3145;42.726;23.342;2023-01-31T02:17:16;94889.56;;;0.49;nan
6224;BME280;3145;42.726;23.342;2023-01-31T02:19:51;94883.34;;;0.41;nan
6224;BME280;3145;42.726;23.342;2023-01-31T02:22:23;94903.50;;;0.48;nan
6224;BME280;3145;42.726;23.342;2023-01-31T02:28:35;94908.16;;;0.54;nan
6224;BME280;3145;42.726;23.342;2023-01-31T02:34:09;94865.91;;;0.22;nan
6224;BME280;3145;42.726;23.342;2023-01-31T02:36:48;94922.13;;;0.53;nan
6224;BME280;3145;42.726;23.342;2023-01-31T02:39:25;94925.66;;;0.52;nan
6224;BME280;3145;42.726;23.342;2023-01-31T02:41:56;94908.53;;;0.40;nan
6224;BME280;3145;42.726;23.342;2023-01-31T02:44:31;94928.28;;;0.52;nan
6224;BME280;3145;42.726;23.342;2023-01-31T02:47:28;94919.34;;;0.45;nan
6224;BME280;3145;42.726;23.342;2023-01-31T02:50:03;94926.88;;;0.48;nan
6224;BME280;3145;42.726;23.342;2023-01-31T02:52:41;94934.38;;;0.51;nan
6224;BME280;3145;42.726;23.342;2023-01-31T02:55:14;94934.50;;;0.50;nan
6224;BME280;3145;42.726;23.342;2023-01-31T02:58:02;94944.59;;;0.43;nan
6224;BME280;3145;42.726;23.342;2023-01-31T03:00:32;94953.78;;;0.47;nan
6224;BME280;3145;42.726;23.342;2023-01-31T03:02:59;94969.13;;;0.50;nan
6224;BME280;3145;42.726;23.342;2023-01-31T03:05:27;94963.09;;;0.50;nan
6224;BME280;3145;42.726;23.342;2023-01-31T03:07:55;94970.75;;;0.51;nan
6224;BME280;3145;42.726;23.342;2023-01-31T03:10:44;94967.25;;;0.52;nan
6224;BME280;3145;42.726;23.342;2023-01-31T03:13:26;94983.75;;;0.51;nan
6224;BME280;3145;42.726;23.342;2023-01-31T03:16:05;94984.47;;;0.53;nan
6224;BME280;3145;42.726;23.342;2023-01-31T03:18:58;94946.16;;;0.25;nan
6224;BME280;3145;42.726;23.342;2023-01-31T03:21:32;94982.38;;;0.47;nan
6224;BME280;3145;42.726;23.342;2023-01-31T03:24:03;94980.84;;;0.45;nan
6224;BME280;3145;42.726;23.342;2023-01-31T03:26:31;94985.47;;;0.41;nan
6224;BME280;3145;42.726;23.342;2023-01-31T03:29:00;94931.16;;;0.08;nan
6224;BME280;3145;42.726;23.342;2023-01-31T03:31:33;94993.03;;;0.44;nan
6224;BME280;3145;42.726;23.342;2023-01-31T03:34:05;94996.84;;;0.40;nan
6224;BME280;3145;42.726;23.342;2023-01-31T03:36:38;94979.56;;;0.39;nan
6224;BME280;3145;42.726;23.342;2023-01-31T03:39:12;95002.97;;;0.39;nan
6224;BME280;3145;42.726;23.342;2023-01-31T03:41:51;94995.25;;;0.28;nan
6224;BME280;3145;42.726;23.342;2023-01-31T03:44:26;95012.06;;;0.34;nan
6224;BME280;3145;42.726;23.342;2023-01-31T03:46:58;95002.28;;;0.37;nan
6224;BME280;3145;42.726;23.342;2023-01-31T03:49:28;95013.88;;;0.33;nan
6224;BME280;3145;42.726;23.342;2023-01-31T03:52:00;94984.19;;;0.15;nan
6224;BME280;3145;42.726;23.342;2023-01-31T03:54:33;94999.50;;;0.29;nan
6224;BME280;3145;42.726;23.342;2023-01-31T03:57:04;95016.72;;;0.30;nan
6224;BME280;3145;42.726;23.342;2023-01-31T03:59:36;95004.94;;;0.26;nan
6224;BME280;3145;42.726;23.342;2023-01-31T04:02:07;95011.38;;;0.32;nan
6224;BME280;3145;42.726;23.342;2023-01-31T04:04:39;95004.16;;;0.35;nan
6224;BME280;3145;42.726;23.342;2023-01-31T04:07:09;95005.63;;;0.28;nan
6224;BME280;3145;42.726;23.342;2023-01-31T04:09:36;95011.72;;;0.38;nan
6224;BME280;3145;42.726;23.342;2023-01-31T04:12:04;95000.69;;;0.25;nan
6224;BME280;3145;42.726;23.342;2023-01-31T04:14:31;95012.22;;;0.32;nan
6224;BME280;3145;42.726;23.342;2023-01-31T04:16:57;95013.78;;;0.24;nan
6224;BME280;3145;42.726;23.342;2023-01-31T04:19:24;95013.56;;;0.27;nan
6224;BME280;3145;42.726;23.342;2023-01-31T04:21:51;95000.28;;;0.30;nan
6224;BME280;3145;42.726;23.342;2023-01-31T04:24:19;94983.00;;;0.19;nan
6224;BME280;3145;42.726;23.342;2023-01-31T04:26:46;94975.69;;;0.24;nan
6224;BME280;3145;42.726;23.342;2023-01-31T04:29:12;94991.44;;;0.32;nan
6224;BME280;3145;42.726;23.342;2023-01-31T04:31:39;95002.09;;;0.29;nan
6224;BME280;3145;42.726;23.342;2023-01-31T04:34:06;95000.69;;;0.25;nan
6224;BME280;3145;42.726;23.342;2023-01-31T04:36:33;95019.19;;;0.32;nan
6224;BME280;3145;42.726;23.342;2023-01-31T04:39:00;95009.28;;;0.26;nan
6224;BME280;3145;42.726;23.342;2023-01-31T04:41:28;95020.38;;;0.28;nan
6224;BME280;3145;42.726;23.342;2023-01-31T04:43:54;95035.13;;;0.27;nan
6224;BME280;3145;42.726;23.342;2023-01-31T04:46:22;95027.97;;;0.20;nan
6224;BME280;3145;42.726;23.342;2023-01-31T04:48:48;95040.31;;;0.27;nan
6224;BME280;3145;42.726;23.342;2023-01-31T04:51:15;95031.25;;;0.22;nan
6224;BME280;3145;42.726;23.342;2023-01-31T04:53:42;95046.34;;;0.28;nan
6224;BME280;3145;42.726;23.342;2023-01-31T04:56:09;95045.41;;;0.29;nan
6224;BME280;3145;42.726;23.342;2023-01-31T04:58:37;95041.41;;;0.25;nan
6224;BME280;3145;42.726;23.342;2023-01-31T05:01:05;95045.28;;;0.30;nan
6224;BME280;3145;42.726;23.342;2023-01-31T05:03:32;95039.13;;;0.31;nan
6224;BME280;3145;42.726;23.342;2023-01-31T05:05:59;95020.53;;;0.15;nan
6224;BME280;3145;42.726;23.342;2023-01-31T05:08:26;95049.63;;;0.30;nan
6224;BME280;3145;42.726;23.342;2023-01-31T05:10:56;95037.38;;;0.32;nan
6224;BME280;3145;42.726;23.342;2023-01-31T05:13:23;94974.19;;;-0.10;nan
6224;BME280;3145;42.726;23.342;2023-01-31T05:15:51;95031.34;;;0.31;nan
6224;BME280;3145;42.726;23.342;2023-01-31T05:18:18;95006.38;;;0.19;nan
6224;BME280;3145;42.726;23.342;2023-01-31T05:20:47;94997.06;;;0.17;nan
6224;BME280;3145;42.726;23.342;2023-01-31T05:23:14;95053.25;;;0.38;nan
6224;BME280;3145;42.726;23.342;2023-01-31T05:25:41;95030.84;;;0.37;nan
6224;BME280;3145;42.726;23.342;2023-01-31T05:28:08;95027.63;;;0.24;nan
6224;BME280;3145;42.726;23.342;2023-01-31T05:30:35;95031.59;;;0.28;nan
6224;BME280;3145;42.726;23.342;2023-01-31T05:33:03;95056.44;;;0.42;nan
6224;BME280;3145;42.726;23.342;2023-01-31T05:35:30;95062.47;;;0.42;nan
6224;BME280;3145;42.726;23.342;2023-01-31T05:37:56;95016.63;;;0.21;nan
6224;BME280;3145;42.726;23.342;2023-01-31T05:40:23;95062.66;;;0.50;nan
6224;BME280;3145;42.726;23.342;2023-01-31T05:42:53;95054.19;;;0.48;nan
6224;BME280;3145;42.726;23.342;2023-01-31T05:45:20;95044.03;;;0.45;nan
6224;BME280;3145;42.726;23.342;2023-01-31T05:47:47;95068.09;;;0.47;nan
6224;BME280;3145;42.726;23.342;2023-01-31T05:50:15;95050.63;;;0.49;nan
6224;BME280;3145;42.726;23.342;2023-01-31T05:52:42;95056.63;;;0.50;nan
6224;BME280;3145;42.726;23.342;2023-01-31T05:55:09;95057.59;;;0.69;nan
6224;BME280;3145;42.726;23.342;2023-01-31T05:57:36;95047.44;;;0.66;nan
6224;BME280;3145;42.726;23.342;2023-01-31T06:00:03;95063.94;;;0.76;nan
6224;BME280;3145;42.726;23.342;2023-01-31T06:02:30;95068.19;;;0.77;nan
6224;BME280;3145;42.726;23.342;2023-01-31T06:04:57;95072.16;;;0.81;nan
6224;BME280;3145;42.726;23.342;2023-01-31T06:07:25;95067.94;;;0.80;nan
6224;BME280;3145;42.726;23.342;2023-01-31T06:09:52;95068.63;;;0.82;nan
6224;BME280;3145;42.726;23.342;2023-01-31T06:12:19;95061.22;;;0.78;nan
6224;BME280;3145;42.726;23.342;2023-01-31T06:14:45;95039.66;;;0.66;nan
6224;BME280;3145;42.726;23.342;2023-01-31T06:17:13;95074.53;;;0.84;nan
6224;BME280;3145;42.726;23.342;2023-01-31T06:19:40;95047.56;;;0.65;nan
6224;BME280;3145;42.726;23.342;2023-01-31T06:22:07;95068.00;;;0.69;nan
6224;BME280;3145;42.726;23.342;2023-01-31T06:24:35;95070.59;;;0.90;nan
6224;BME280;3145;42.726;23.342;2023-01-31T06:27:02;95067.59;;;0.94;nan
6224;BME280;3145;42.726;23.342;2023-01-31T06:29:29;95060.69;;;0.84;nan
6224;BME280;3145;42.726;23.342;2023-01-31T06:31:55;95068.19;;;0.98;nan
6224;BME280;3145;42.726;23.342;2023-01-31T06:34:22;95082.16;;;1.06;nan
6224;BME280;3145;42.726;23.342;2023-01-31T06:36:49;95079.31;;;1.09;nan
6224;BME280;3145;42.726;23.342;2023-01-31T06:39:15;95075.56;;;1.02;nan
6224;BME280;3145;42.726;23.342;2023-01-31T06:41:43;95044.25;;;0.83;nan
6224;BME280;3145;42.726;23.342;2023-01-31T06:44:10;95084.16;;;1.14;nan
6224;BME280;3145;42.726;23.342;2023-01-31T06:46:37;95079.91;;;1.22;nan
6224;BME280;3145;42.726;23.342;2023-01-31T06:49:04;95091.03;;;1.24;nan
6224;BME280;3145;42.726;23.342;2023-01-31T06:51:30;95080.09;;;1.30;nan
6224;BME280;3145;42.726;23.342;2023-01-31T06:53:57;95075.84;;;1.29;nan
6224;BME280;3145;42.726;23.342;2023-01-31T06:56:24;95087.09;;;1.30;nan
6224;BME280;3145;42.726;23.342;2023-01-31T06:58:52;95062.38;;;1.15;nan
6224;BME280;3145;42.726;23.342;2023-01-31T07:01:18;95078.47;;;1.29;nan
6224;BME280;3145;42.726;23.342;2023-01-31T07:03:46;95095.88;;;1.38;nan
6224;BME280;3145;42.726;23.342;2023-01-31T07:06:13;95099.31;;;1.39;nan
6224;BME280;3145;42.726;23.342;2023-01-31T07:08:42;95097.97;;;1.44;nan
6224;BME280;3145;42.726;23.342;2023-01-31T07:11:09;95099.88;;;1.42;nan
6224;BME280;3145;42.726;23.342;2023-01-31T07:13:36;95090.56;;;1.40;nan
6224;BME280;3145;42.726;23.342;2023-01-31T07:16:04;95034.41;;;1.07;nan
6224;BME280;3145;42.726;23.342;2023-01-31T07:18:31;95101.38;;;1.45;nan
6224;BME280;3145;42.726;23.342;2023-01-31T07:20:58;95111.72;;;1.56;nan
6224;BME280;3145;42.726;23.342;2023-01-31T07:23:24;95115.69;;;1.60;nan
6224;BME280;3145;42.726;23.342;2023-01-31T07:25:51;95107.63;;;1.63;nan
6224;BME280;3145;42.726;23.342;2023-01-31T07:28:18;95117.78;;;1.66;nan
6224;BME280;3145;42.726;23.342;2023-01-31T07:30:44;95085.94;;;1.53;nan
6224;BME280;3145;42.726;23.342;2023-01-31T07:33:14;95088.41;;;1.54;nan
6224;BME280;3145;42.726;23.342;2023-01-31T07:35:40;95107.41;;;1.75;nan
6224;BME280;3145;42.726;23.342;2023-01-31T07:38:07;95108.66;;;1.81;nan
6224;BME280;3145;42.726;23.342;2023-01-31T07:40:34;95105.75;;;1.74;nan
6224;BME280;3145;42.726;23.342;2023-01-31T07:43:01;95119.38;;;1.87;nan
6224;BME280;3145;42.726;23.342;2023-01-31T07:45:27;95121.97;;;1.87;nan
6224;BME280;3145;42.726;23.342;2023-01-31T07:47:56;95107.75;;;1.91;nan
6224;BME280;3145;42.726;23.342;2023-01-31T07:50:25;95125.59;;;2.05;nan
6224;BME280;3145;42.726;23.342;2023-01-31T07:52:52;95129.41;;;2.01;nan
6224;BME280;3145;42.726;23.342;2023-01-31T07:55:19;95108.84;;;1.98;nan
6224;BME280;3145;42.726;23.342;2023-01-31T07:57:46;95118.59;;;2.06;nan
6224;BME280;3145;42.726;23.342;2023-01-31T08:00:13;95111.88;;;2.03;nan
6224;BME280;3145;42.726;23.342;2023-01-31T08:02:54;95115.75;;;2.09;nan
6224;BME280;3145;42.726;23.342;2023-01-31T08:05:39;95118.72;;;2.04;nan
6224;BME280;3145;42.726;23.342;2023-01-31T08:08:06;95131.38;;;2.18;nan
6224;BME280;3145;42.726;23.342;2023-01-31T08:10:38;95125.38;;;2.27;nan
6224;BME280;3145;42.726;23.342;2023-01-31T08:13:05;95107.41;;;2.24;nan
6224;BME280;3145;42.726;23.342;2023-01-31T08:15:32;95055.41;;;2.13;nan
6224;BME280;3145;42.726;23.342;2023-01-31T08:17:59;95110.44;;;2.67;nan
6224;BME280;3145;42.726;23.342;2023-01-31T08:20:25;95106.69;;;3.17;nan
6224;BME280;3145;42.726;23.342;2023-01-31T08:22:55;95092.09;;;3.70;nan
6224;BME280;3145;42.726;23.342;2023-01-31T08:25:22;95091.59;;;4.38;nan
6224;BME280;3145;42.726;23.342;2023-01-31T08:27:50;95101.28;;;4.98;nan
6224;BME280;3145;42.726;23.342;2023-01-31T08:30:17;95112.19;;;5.12;nan
6224;BME280;3145;42.726;23.342;2023-01-31T08:32:44;95106.78;;;5.31;nan
6224;BME280;3145;42.726;23.342;2023-01-31T08:35:11;95120.50;;;5.25;nan
6224;BME280;3145;42.726;23.342;2023-01-31T08:37:37;95118.22;;;4.86;nan
6224;BME280;3145;42.726;23.342;2023-01-31T08:40:07;95112.47;;;4.65;nan
6224;BME280;3145;42.726;23.342;2023-01-31T08:42:34;95106.25;;;4.66;nan
6224;BME280;3145;42.726;23.342;2023-01-31T08:45:01;95110.88;;;4.72;nan
6224;BME280;3145;42.726;23.342;2023-01-31T08:47:27;95108.25;;;4.72;nan
6224;BME280;3145;42.726;23.342;2023-01-31T08:49:54;95113.81;;;4.69;nan
6224;BME280;3145;42.726;23.342;2023-01-31T08:52:21;95109.34;;;5.23;nan
6224;BME280;3145;42.726;23.342;2023-01-31T08:54:48;95109.22;;;5.07;nan
6224;BME280;3145;42.726;23.342;2023-01-31T08:57:16;95114.50;;;5.15;nan
6224;BME280;3145;42.726;23.342;2023-01-31T08:59:44;95111.00;;;5.49;nan
6224;BME280;3145;42.726;23.342;2023-01-31T09:02:10;95119.94;;;5.64;nan
6224;BME280;3145;42.726;23.342;2023-01-31T09:04:37;95126.13;;;5.81;nan
6224;BME280;3145;42.726;23.342;2023-01-31T09:07:04;95127.03;;;5.97;nan
6224;BME280;3145;42.726;23.342;2023-01-31T09:09:30;95114.81;;;6.14;nan
6224;BME280;3145;42.726;23.342;2023-01-31T09:11:57;95094.91;;;6.37;nan
6224;BME280;3145;42.726;23.342;2023-01-31T09:14:25;95117.00;;;6.84;nan
6224;BME280;3145;42.726;23.342;2023-01-31T09:16:53;95099.88;;;6.48;nan
6224;BME280;3145;42.726;23.342;2023-01-31T09:19:20;95100.56;;;6.82;nan
6224;BME280;3145;42.726;23.342;2023-01-31T09:21:47;95088.75;;;7.02;nan
6224;BME280;3145;42.726;23.342;2023-01-31T09:24:14;95101.06;;;6.93;nan
6224;BME280;3145;42.726;23.342;2023-01-31T09:26:41;95100.91;;;7.11;nan
6224;BME280;3145;42.726;23.342;2023-01-31T09:29:07;95093.84;;;7.03;nan
6224;BME280;3145;42.726;23.342;2023-01-31T09:31:35;95081.56;;;7.12;nan
6224;BME280;3145;42.726;23.342;2023-01-31T09:34:02;95071.38;;;7.01;nan
6224;BME280;3145;42.726;23.342;2023-01-31T09:36:29;95080.56;;;7.29;nan
6224;BME280;3145;42.726;23.342;2023-01-31T09:38:56;95060.69;;;7.26;nan
6224;BME280;3145;42.726;23.342;2023-01-31T09:41:27;95060.81;;;7.49;nan
6224;BME280;3145;42.726;23.342;2023-01-31T09:43:58;95074.81;;;7.25;nan
6224;BME280;3145;42.726;23.342;2023-01-31T09:46:31;95076.31;;;7.20;nan
6224;BME280;3145;42.726;23.342;2023-01-31T09:49:01;95066.41;;;6.66;nan
6224;BME280;3145;42.726;23.342;2023-01-31T09:51:31;95071.00;;;6.48;nan
6224;BME280;3145;42.726;23.342;2023-01-31T09:53:59;95048.06;;;6.82;nan
6224;BME280;3145;42.726;23.342;2023-01-31T09:56:33;95060.56;;;6.96;nan
6224;BME280;3145;42.726;23.342;2023-01-31T09:59:09;95069.38;;;7.11;nan
6224;BME280;3145;42.726;23.342;2023-01-31T10:01:47;95055.59;;;7.33;nan
6224;BME280;3145;42.726;23.342;2023-01-31T10:04:27;95062.66;;;6.92;nan
6224;BME280;3145;42.726;23.342;2023-01-31T10:07:02;95072.47;;;6.42;nan
6224;BME280;3145;42.726;23.342;2023-01-31T10:09:34;95063.25;;;6.30;nan
6224;BME280;3145;42.726;23.342;2023-01-31T10:12:08;95051.53;;;6.09;nan
6224;BME280;3145;42.726;23.342;2023-01-31T10:14:40;95072.03;;;6.21;nan
6224;BME280;3145;42.726;23.342;2023-01-31T10:17:11;95054.13;;;6.01;nan
6224;BME280;3145;42.726;23.342;2023-01-31T10:19:47;95069.31;;;5.89;nan
6224;BME280;3145;42.726;23.342;2023-01-31T10:22:19;95068.13;;;5.84;nan
6224;BME280;3145;42.726;23.342;2023-01-31T10:24:49;95068.28;;;5.49;nan
6224;BME280;3145;42.726;23.342;2023-01-31T10:27:25;95063.38;;;5.28;nan
6224;BME280;3145;42.726;23.342;2023-01-31T10:29:59;95058.78;;;5.04;nan
6224;BME280;3145;42.726;23.342;2023-01-31T10:32:33;95054.56;;;4.86;nan
6224;BME280;3145;42.726;23.342;2023-01-31T10:35:09;95041.91;;;4.73;nan
6224;BME280;3145;42.726;23.342;2023-01-31T10:37:42;95038.31;;;4.57;nan
6224;BME280;3145;42.726;23.342;2023-01-31T10:40:14;95053.41;;;4.63;nan
6224;BME280;3145;42.726;23.342;2023-01-31T10:42:45;95046.53;;;4.62;nan
6224;BME280;3145;42.726;23.342;2023-01-31T10:45:17;95050.47;;;4.48;nan
6224;BME280;3145;42.726;23.342;2023-01-31T10:47:48;95042.88;;;4.37;nan
6224;BME280;3145;42.726;23.342;2023-01-31T10:50:18;95042.56;;;4.40;nan
6224;BME280;3145;42.726;23.342;2023-01-31T10:52:55;95056.03;;;4.28;nan
6224;BME280;3145;42.726;23.342;2023-01-31T10:55:44;95053.25;;;4.29;nan
6224;BME280;3145;42.726;23.342;2023-01-31T10:58:15;95054.06;;;4.30;nan
6224;BME280;3145;42.726;23.342;2023-01-31T11:00:42;95045.78;;;4.17;nan
6224;BME280;3145;42.726;23.342;2023-01-31T11:03:12;95024.84;;;3.99;nan
6224;BME280;3145;42.726;23.342;2023-01-31T11:05:45;95054.09;;;4.03;nan
6224;BME280;3145;42.726;23.342;2023-01-31T11:08:23;95043.72;;;3.93;nan
6224;BME280;3145;42.726;23.342;2023-01-31T11:10:52;95047.44;;;3.91;nan
6224;BME280;3145;42.726;23.342;2023-01-31T11:13:20;95041.50;;;3.98;nan
6224;BME280;3145;42.726;23.342;2023-01-31T11:15:49;95041.13;;;3.93;nan
6224;BME280;3145;42.726;23.342;2023-01-31T11:18:25;95046.25;;;3.85;nan
6224;BME280;3145;42.726;23.342;2023-01-31T11:20:54;95045.94;;;3.88;nan
6224;BME280;3145;42.726;23.342;2023-01-31T11:23:23;95052.50;;;3.92;nan
6224;BME280;3145;42.726;23.342;2023-01-31T11:25:51;95036.22;;;4.08;nan
6224;BME280;3145;42.726;23.342;2023-01-31T11:28:21;95052.94;;;4.32;nan
6224;BME280;3145;42.726;23.342;2023-01-31T11:30:50;95053.34;;;4.37;nan
6224;BME280;3145;42.726;23.342;2023-01-31T11:33:37;95050.25;;;4.24;nan
6224;BME280;3145;42.726;23.342;2023-01-31T11:36:11;94993.91;;;3.95;nan
6224;BME280;3145;42.726;23.342;2023-01-31T11:38:38;95053.56;;;4.26;nan
6224;BME280;3145;42.726;23.342;2023-01-31T11:41:27;95060.84;;;4.05;nan
6224;BME280;3145;42.726;23.342;2023-01-31T11:44:21;95051.66;;;4.01;nan
6224;BME280;3145;42.726;23.342;2023-01-31T11:46:53;95052.72;;;3.81;nan
6224;BME280;3145;42.726;23.342;2023-01-31T11:49:29;95057.72;;;3.65;nan
6224;BME280;3145;42.726;23.342;2023-01-31T11:52:00;95055.13;;;3.65;nan
6224;BME280;3145;42.726;23.342;2023-01-31T11:54:30;95059.59;;;3.55;nan
6224;BME280;3145;42.726;23.342;2023-01-31T11:56:58;95060.44;;;3.46;nan
6224;BME280;3145;42.726;23.342;2023-01-31T11:59:28;95047.56;;;3.35;nan
6224;BME280;3145;42.726;23.342;2023-01-31T12:01:57;95043.47;;;3.33;nan
6224;BME280;3145;42.726;23.342;2023-01-31T12:04:29;95038.50;;;3.39;nan
6224;BME280;3145;42.726;23.342;2023-01-31T12:07:01;95041.47;;;3.44;nan
6224;BME280;3145;42.726;23.342;2023-01-31T12:09:30;95047.56;;;3.35;nan
6224;BME280;3145;42.726;23.342;2023-01-31T12:12:20;95031.31;;;3.41;nan
6224;BME280;3145;42.726;23.342;2023-01-31T12:14:47;95051.06;;;3.53;nan
6224;BME280;3145;42.726;23.342;2023-01-31T12:17:16;95041.47;;;3.44;nan
6224;BME280;3145;42.726;23.342;2023-01-31T12:19:54;95026.78;;;3.43;nan
6224;BME280;3145;42.726;23.342;2023-01-31T12:22:29;95029.97;;;3.37;nan
6224;BME280;3145;42.726;23.342;2023-01-31T12:25:07;95035.56;;;3.52;nan
6224;BME280;3145;42.726;23.342;2023-01-31T12:27:45;95035.50;;;3.61;nan
6224;BME280;3145;42.726;23.342;2023-01-31T12:30:24;95037.09;;;3.45;nan
6224;BME280;3145;42.726;23.342;2023-01-31T12:33:13;95030.44;;;3.60;nan
6224;BME280;3145;42.726;23.342;2023-01-31T12:36:04;95036.13;;;3.73;nan
6224;BME280;3145;42.726;23.342;2023-01-31T12:38:52;95034.78;;;3.69;nan
6224;BME280;3145;42.726;23.342;2023-01-31T12:41:30;95046.03;;;3.69;nan
6224;BME280;3145;42.726;23.342;2023-01-31T12:44:24;95046.63;;;3.63;nan
6224;BME280;3145;42.726;23.342;2023-01-31T12:47:07;95053.56;;;3.45;nan
6224;BME280;3145;42.726;23.342;2023-01-31T12:50:03;95039.81;;;3.53;nan
6224;BME280;3145;42.726;23.342;2023-01-31T12:52:44;95054.13;;;3.49;nan
6224;BME280;3145;42.726;23.342;2023-01-31T12:55:25;95047.53;;;3.45;nan
6224;BME280;3145;42.726;23.342;2023-01-31T12:58:04;95030.72;;;3.20;nan
6224;BME280;3145;42.726;23.342;2023-01-31T13:00:40;95047.44;;;3.37;nan
6224;BME280;3145;42.726;23.342;2023-01-31T13:03:21;95051.66;;;3.47;nan
6224;BME280;3145;42.726;23.342;2023-01-31T13:05:55;95052.47;;;3.48;nan
6224;BME280;3145;42.726;23.342;2023-01-31T13:08:24;95058.50;;;3.48;nan
6224;BME280;3145;42.726;23.342;2023-01-31T13:10:56;95054.91;;;3.49;nan
6224;BME280;3145;42.726;23.342;2023-01-31T13:13:25;95057.94;;;3.54;nan
6224;BME280;3145;42.726;23.342;2023-01-31T13:15:57;95055.50;;;3.43;nan
6224;BME280;3145;42.726;23.342;2023-01-31T13:18:28;95061.00;;;3.40;nan
6224;BME280;3145;42.726;23.342;2023-01-31T13:20:59;95055.78;;;3.40;nan
6224;BME280;3145;42.726;23.342;2023-01-31T13:23:30;95062.13;;;3.38;nan
6224;BME280;3145;42.726;23.342;2023-01-31T13:26:04;95063.75;;;3.39;nan
6224;BME280;3145;42.726;23.342;2023-01-31T13:28:36;95067.66;;;3.25;nan
6224;BME280;3145;42.726;23.342;2023-01-31T13:31:13;95065.75;;;3.18;nan
6224;BME280;3145;42.726;23.342;2023-01-31T13:33:46;95068.25;;;3.10;nan
6224;BME280;3145;42.726;23.342;2023-01-31T13:36:20;95063.75;;;3.02;nan
6224;BME280;3145;42.726;23.342;2023-01-31T13:38:49;95065.66;;;3.00;nan
6224;BME280;3145;42.726;23.342;2023-01-31T13:41:23;95059.06;;;2.96;nan
6224;BME280;3145;42.726;23.342;2023-01-31T13:43:52;95060.44;;;3.00;nan
6224;BME280;3145;42.726;23.342;2023-01-31T13:46:21;95044.25;;;2.97;nan
6224;BME280;3145;42.726;23.342;2023-01-31T13:48:53;95065.88;;;3.16;nan
6224;BME280;3145;42.726;23.342;2023-01-31T13:51:24;95060.81;;;3.15;nan
6224;BME280;3145;42.726;23.342;2023-01-31T13:53:57;95062.03;;;3.20;nan
6224;BME280;3145;42.726;23.342;2023-01-31T13:56:29;95065.72;;;3.27;nan
6224;BME280;3145;42.726;23.342;2023-01-31T13:58:58;95072.31;;;3.31;nan
6224;BME280;3145;42.726;23.342;2023-01-31T14:01:27;95065.97;;;3.34;nan
6224;BME280;3145;42.726;23.342;2023-01-31T14:04:22;95075.03;;;3.39;nan
6224;BME280;3145;42.726;23.342;2023-01-31T14:06:54;95067.38;;;3.28;nan
6224;BME280;3145;42.726;23.342;2023-01-31T14:09:22;95081.25;;;3.29;nan